Time,TemperatureF,DewpointF,PressureIn,WindDirection,WindDirectionDegrees,WindSpeedMPH,WindSpeedGustMPH,Humidity,HourlyPrecipIn,Conditions,Clouds,dailyrainin,SoftwareType,DateUTC
2013-03-13 00:00:00,34.6,32.0,30.11,SW,218,5.0,6.0,90,0.01,,,0.01,weatherlink.com 1.10,2013-03-13 04:00:00,
2013-03-13 00:15:00,34.3,32.0,30.11,WSW,243,0.0,3.0,90,0.01,,,0.00,weatherlink.com 1.10,2013-03-13 04:15:00,
2013-03-13 00:30:00,33.7,31.0,30.11,SW,233,1.0,2.0,91,0.01,,,0.00,weatherlink.com 1.10,2013-03-13 04:30:00,
2013-03-13 00:45:00,33.3,31.0,30.11,WSW,250,1.0,2.0,92,0.00,,,0.00,weatherlink.com 1.10,2013-03-13 04:45:00,
2013-03-13 01:00:00,32.9,31.0,30.11,SW,218,1.0,2.0,93,0.00,,,0.00,weatherlink.com 1.10,2013-03-13 05:00:00,
2013-03-13 01:15:00,32.6,31.0,30.11,WSW,242,0.0,2.0,93,0.00,,,0.00,weatherlink.com 1.10,2013-03-13 05:15:00,
2013-03-13 01:30:00,32.5,31.0,30.10,SW,228,2.0,3.0,94,0.00,,,0.00,weatherlink.com 1.10,2013-03-13 05:30:00,
2013-03-13 01:45:00,32.0,30.0,30.10,SW,233,0.0,1.0,93,0.00,,,0.00,weatherlink.com 1.10,2013-03-13 05:45:00,
2013-03-13 02:00:00,31.7,30.0,30.09,SW,232,0.0,0.0,94,0.00,,,0.00,weatherlink.com 1.10,2013-03-13 06:00:00,
2013-03-13 02:15:00,31.4,30.0,30.09,SW,236,0.0,0.0,94,0.00,,,0.00,weatherlink.com 1.10,2013-03-13 06:15:00,
2013-03-13 02:30:00,31.6,30.0,30.10,WSW,245,0.0,0.0,95,0.00,,,0.00,weatherlink.com 1.10,2013-03-13 06:30:00,
2013-03-13 02:45:00,32.2,31.0,30.09,SW,221,0.0,0.0,95,0.00,,,0.00,weatherlink.com 1.10,2013-03-13 06:45:00,
2013-03-13 03:00:00,32.4,31.0,30.09,SW,236,0.0,1.0,94,0.00,,,0.00,weatherlink.com 1.10,2013-03-13 07:00:00,
2013-03-13 03:15:00,32.6,31.0,30.08,WSW,238,0.0,2.0,94,0.00,,,0.00,weatherlink.com 1.10,2013-03-13 07:15:00,
2013-03-13 03:30:00,32.8,31.0,30.08,SW,221,0.0,0.0,93,0.00,,,0.00,weatherlink.com 1.10,2013-03-13 07:30:00,
2013-03-13 03:45:00,33.1,31.0,30.07,SW,231,1.0,3.0,93,0.00,,,0.00,weatherlink.com 1.10,2013-03-13 07:45:00,
2013-03-13 04:00:00,33.3,31.0,30.07,WNW,294,1.0,6.0,92,0.00,,,0.00,weatherlink.com 1.10,2013-03-13 08:00:00,
2013-03-13 04:16:00,32.9,30.0,30.07,West,279,4.0,13.0,90,0.00,,,0.00,weatherlink.com 1.10,2013-03-13 08:16:00,
2013-03-13 04:31:00,32.6,30.0,30.07,SW,226,2.0,7.0,91,0.00,,,0.00,weatherlink.com 1.10,2013-03-13 08:31:00,
2013-03-13 04:46:00,32.5,30.0,30.07,SW,219,4.0,7.0,91,0.00,,,0.00,weatherlink.com 1.10,2013-03-13 08:46:00,
2013-03-13 05:01:00,32.6,30.0,30.06,WSW,240,6.0,7.0,89,0.00,,,0.00,weatherlink.com 1.10,2013-03-13 09:01:00,
2013-03-13 05:16:00,32.7,30.0,30.07,WSW,238,2.0,5.0,89,0.00,,,0.00,weatherlink.com 1.10,2013-03-13 09:16:00,
2013-03-13 05:31:00,32.7,30.0,30.07,SW,228,1.0,4.0,88,0.00,,,0.00,weatherlink.com 1.10,2013-03-13 09:31:00,
2013-03-13 05:46:00,32.7,30.0,30.08,NNW,338,3.0,9.0,89,0.00,,,0.00,weatherlink.com 1.10,2013-03-13 09:46:00,
2013-03-13 06:16:00,29.8,28.0,30.09,West,260,2.0,9.0,94,0.00,,,0.00,weatherlink.com 1.10,2013-03-13 10:16:00,
2013-03-13 07:01:00,28.6,26.0,30.11,NNW,339,3.0,11.0,89,0.00,,,0.00,weatherlink.com 1.10,2013-03-13 11:01:00,
2013-03-13 07:16:00,28.4,23.0,30.12,WNW,285,2.0,11.0,79,0.00,,,0.00,weatherlink.com 1.10,2013-03-13 11:16:00,
2013-03-13 07:31:00,28.3,21.0,30.13,SSW,211,2.0,8.0,75,0.00,,,0.00,weatherlink.com 1.10,2013-03-13 11:31:00,
2013-03-13 07:46:00,27.9,21.0,30.13,West,281,1.0,9.0,74,0.00,,,0.00,weatherlink.com 1.10,2013-03-13 11:46:00,
2013-03-13 08:01:00,27.5,20.0,30.14,WNW,290,1.0,10.0,73,0.00,,,0.00,weatherlink.com 1.10,2013-03-13 12:01:00,
2013-03-13 08:16:00,27.2,20.0,30.15,NW,319,4.0,7.0,73,0.00,,,0.00,weatherlink.com 1.10,2013-03-13 12:16:00,
2013-03-13 08:31:00,27.1,20.0,30.15,West,276,1.0,8.0,73,0.00,,,0.00,weatherlink.com 1.10,2013-03-13 12:31:00,
2013-03-13 08:46:00,27.4,20.0,30.16,WSW,257,3.0,8.0,73,0.00,,,0.00,weatherlink.com 1.10,2013-03-13 12:46:00,
2013-03-13 09:01:00,28.2,20.0,30.16,West,278,3.0,11.0,71,0.00,,,0.00,weatherlink.com 1.10,2013-03-13 13:01:00,
2013-03-13 09:16:00,28.8,20.0,30.17,West,276,8.0,10.0,71,0.00,,,0.00,weatherlink.com 1.10,2013-03-13 13:16:00,
2013-03-13 09:46:00,29.6,21.0,30.19,WSW,245,4.0,12.0,70,0.00,,,0.00,weatherlink.com 1.10,2013-03-13 13:46:00,
2013-03-13 10:01:00,29.6,22.0,30.20,SW,221,2.0,12.0,72,0.00,,,0.00,weatherlink.com 1.10,2013-03-13 14:01:00,
2013-03-13 10:17:00,30.0,22.0,30.20,South,191,3.0,9.0,72,0.00,,,0.00,weatherlink.com 1.10,2013-03-13 14:17:00,
2013-03-13 10:32:00,30.4,22.0,30.20,WNW,294,6.0,11.0,71,0.00,,,0.00,weatherlink.com 1.10,2013-03-13 14:32:00,
2013-03-13 10:47:00,30.3,22.0,30.21,SW,235,3.0,10.0,70,0.00,,,0.00,weatherlink.com 1.10,2013-03-13 14:47:00,
2013-03-13 11:02:00,30.9,23.0,30.21,West,276,0.0,8.0,71,0.00,,,0.00,weatherlink.com 1.10,2013-03-13 15:02:00,
2013-03-13 11:17:00,31.0,22.0,30.22,SW,236,8.0,13.0,69,0.00,,,0.00,weatherlink.com 1.10,2013-03-13 15:17:00,
2013-03-13 11:32:00,30.3,22.0,30.23,WSW,253,2.0,12.0,71,0.00,,,0.00,weatherlink.com 1.10,2013-03-13 15:32:00,
2013-03-13 11:47:00,30.4,23.0,30.23,WSW,242,2.0,12.0,73,0.00,,,0.00,weatherlink.com 1.10,2013-03-13 15:47:00,
2013-03-13 12:02:00,30.2,24.0,30.24,SSW,208,8.0,9.0,76,0.00,,,0.00,weatherlink.com 1.10,2013-03-13 16:02:00,
2013-03-13 12:17:00,29.0,26.0,30.25,SW,232,6.0,10.0,87,0.00,,,0.00,weatherlink.com 1.10,2013-03-13 16:17:00,
2013-03-13 12:32:00,31.1,25.0,30.25,NW,326,3.0,10.0,77,0.00,,,0.00,weatherlink.com 1.10,2013-03-13 16:32:00,
2013-03-13 12:47:00,29.6,25.0,30.25,West,267,2.0,9.0,84,0.00,,,0.00,weatherlink.com 1.10,2013-03-13 16:47:00,
2013-03-13 13:02:00,30.3,25.0,30.26,WSW,257,3.0,12.0,81,0.00,,,0.00,weatherlink.com 1.10,2013-03-13 17:02:00,
2013-03-13 13:17:00,29.6,26.0,30.26,West,266,4.0,9.0,85,0.00,,,0.00,weatherlink.com 1.10,2013-03-13 17:17:00,
2013-03-13 13:32:00,32.0,25.0,30.26,SSW,208,9.0,15.0,76,0.00,,,0.00,weatherlink.com 1.10,2013-03-13 17:32:00,
2013-03-13 13:47:00,31.5,24.0,30.26,North,6,3.0,-999.0,73,-99.99,,,0.00,weatherlink.com 1.10,2013-03-13 17:47:00,
2013-03-13 14:02:00,31.9,25.0,30.27,NW,312,3.0,16.0,75,0.00,,,0.00,weatherlink.com 1.10,2013-03-13 18:02:00,
2013-03-13 14:17:00,31.6,25.0,30.27,NW,314,1.0,12.0,76,0.00,,,0.00,weatherlink.com 1.10,2013-03-13 18:17:00,
2013-03-13 14:32:00,32.5,25.0,30.27,South,191,1.0,15.0,73,0.00,,,0.00,weatherlink.com 1.10,2013-03-13 18:32:00,
2013-03-13 14:47:00,30.0,27.0,30.28,SSW,192,5.0,10.0,87,0.00,,,0.00,weatherlink.com 1.10,2013-03-13 18:47:00,
2013-03-13 15:02:00,29.7,25.0,30.28,South,191,5.0,10.0,84,0.00,,,0.00,weatherlink.com 1.10,2013-03-13 19:02:00,
2013-03-13 15:17:00,31.9,26.0,30.28,South,191,2.0,10.0,78,0.00,,,0.00,weatherlink.com 1.10,2013-03-13 19:17:00,
2013-03-13 15:32:00,31.0,26.0,30.28,South,191,3.0,6.0,81,0.00,,,0.00,weatherlink.com 1.10,2013-03-13 19:32:00,
2013-03-13 15:47:00,30.6,26.0,30.29,South,191,2.0,16.0,83,0.00,,,0.00,weatherlink.com 1.10,2013-03-13 19:47:00,
2013-03-13 16:02:00,30.4,27.0,30.29,South,191,1.0,10.0,87,0.00,,,0.00,weatherlink.com 1.10,2013-03-13 20:02:00,
2013-03-13 16:17:00,31.4,26.0,30.30,South,191,2.0,14.0,79,0.00,,,0.00,weatherlink.com 1.10,2013-03-13 20:17:00,
2013-03-13 16:32:00,30.2,26.0,30.30,South,191,3.0,9.0,84,0.00,,,0.00,weatherlink.com 1.10,2013-03-13 20:32:00,
2013-03-13 16:47:00,32.0,26.0,30.30,South,191,4.0,11.0,78,0.00,,,0.00,weatherlink.com 1.10,2013-03-13 20:47:00,
2013-03-13 17:02:00,31.6,26.0,30.30,SSW,192,5.0,9.0,80,0.00,,,0.00,weatherlink.com 1.10,2013-03-13 21:02:00,
2013-03-13 17:17:00,30.6,26.0,30.31,South,191,5.0,12.0,84,0.00,,,0.00,weatherlink.com 1.10,2013-03-13 21:17:00,
2013-03-13 17:32:00,29.9,27.0,30.31,SSW,192,2.0,10.0,88,0.00,,,0.00,weatherlink.com 1.10,2013-03-13 21:32:00,
2013-03-13 17:47:00,30.4,26.0,30.31,South,191,3.0,8.0,83,0.00,,,0.00,weatherlink.com 1.10,2013-03-13 21:47:00,
2013-03-13 18:02:00,30.3,26.0,30.31,South,191,2.0,7.0,83,0.00,,,0.00,weatherlink.com 1.10,2013-03-13 22:02:00,
2013-03-13 18:17:00,30.5,26.0,30.32,SSW,192,0.0,9.0,82,0.00,,,0.00,weatherlink.com 1.10,2013-03-13 22:17:00,
2013-03-13 18:32:00,30.6,25.0,30.32,South,191,3.0,11.0,79,0.00,,,0.00,weatherlink.com 1.10,2013-03-13 22:32:00,
2013-03-13 18:47:00,30.4,25.0,30.33,South,191,3.0,8.0,80,0.00,,,0.00,weatherlink.com 1.10,2013-03-13 22:47:00,
2013-03-13 19:02:00,30.1,25.0,30.34,WSW,245,5.0,9.0,80,0.00,,,0.00,weatherlink.com 1.10,2013-03-13 23:02:00,
2013-03-13 19:17:00,29.8,25.0,30.34,SW,233,3.0,3.0,82,0.00,,,0.00,weatherlink.com 1.10,2013-03-13 23:17:00,
2013-03-13 19:32:00,29.9,24.0,30.34,South,191,2.0,11.0,80,0.00,,,0.00,weatherlink.com 1.10,2013-03-13 23:32:00,
2013-03-13 20:03:00,29.8,25.0,30.35,South,191,3.0,6.0,82,0.00,,,0.00,weatherlink.com 1.10,2013-03-14 00:03:00,
2013-03-13 20:18:00,29.6,25.0,30.35,SE,141,1.0,9.0,83,0.00,,,0.00,weatherlink.com 1.10,2013-03-14 00:18:00,
2013-03-13 20:33:00,29.4,25.0,30.36,SSW,192,3.0,9.0,84,0.00,,,0.00,weatherlink.com 1.10,2013-03-14 00:33:00,
2013-03-13 20:48:00,29.3,25.0,30.36,WSW,253,0.0,6.0,83,0.00,,,0.00,weatherlink.com 1.10,2013-03-14 00:48:00,
2013-03-13 21:03:00,28.9,24.0,30.36,SW,221,4.0,4.0,83,0.00,,,0.00,weatherlink.com 1.10,2013-03-14 01:03:00,
2013-03-13 21:18:00,28.8,25.0,30.36,SW,224,3.0,5.0,84,0.00,,,0.00,weatherlink.com 1.10,2013-03-14 01:18:00,
2013-03-13 21:33:00,28.6,25.0,30.36,SSW,192,0.0,4.0,85,0.00,,,0.00,weatherlink.com 1.10,2013-03-14 01:33:00,
2013-03-13 21:48:00,28.3,25.0,30.36,South,191,0.0,4.0,86,0.00,,,0.00,weatherlink.com 1.10,2013-03-14 01:48:00,
2013-03-13 22:03:00,27.9,24.0,30.37,South,191,1.0,4.0,86,0.00,,,0.00,weatherlink.com 1.10,2013-03-14 02:03:00,
2013-03-13 22:18:00,27.7,24.0,30.37,South,191,1.0,4.0,87,0.00,,,0.00,weatherlink.com 1.10,2013-03-14 02:18:00,
2013-03-13 22:33:00,27.5,24.0,30.37,South,191,2.0,3.0,87,0.00,,,0.00,weatherlink.com 1.10,2013-03-14 02:33:00,
2013-03-13 22:48:00,27.5,24.0,30.37,South,191,1.0,4.0,87,0.00,,,0.00,weatherlink.com 1.10,2013-03-14 02:48:00,
2013-03-13 23:03:00,27.3,24.0,30.38,South,191,2.0,5.0,87,0.00,,,0.00,weatherlink.com 1.10,2013-03-14 03:03:00,
2013-03-13 23:18:00,27.3,24.0,30.38,SSW,192,2.0,4.0,87,0.00,,,0.00,weatherlink.com 1.10,2013-03-14 03:18:00,
2013-03-13 23:48:00,27.1,24.0,30.38,SSW,192,2.0,5.0,87,0.00,,,0.00,weatherlink.com 1.10,2013-03-14 03:48:00,